createdAt,value
2017-10-10T01:17:05.617Z,14.99
2017-10-10T01:19:37.443Z,15.07
2017-10-10T01:22:09.966Z,15.34
2017-10-10T01:24:41.908Z,15.26
2017-10-10T01:27:13.960Z,15.27
2017-10-10T01:29:56.874Z,15.31
2017-10-10T01:32:29.595Z,15.38
2017-10-10T01:35:04.974Z,15.38
2017-10-10T01:37:45.803Z,15.52
2017-10-10T01:40:18.582Z,15.61
2017-10-10T01:42:50.932Z,15.08
2017-10-10T01:45:23.207Z,15.30
2017-10-10T01:47:55.733Z,15.14
2017-10-10T01:50:28.239Z,15.10
2017-10-10T01:53:02.133Z,14.96
2017-10-10T01:55:34.906Z,15.32
2017-10-10T01:58:07.099Z,15.26
2017-10-10T02:00:39.833Z,15.27
2017-10-10T02:03:12.442Z,15.34
2017-10-10T02:05:43.951Z,15.39
2017-10-10T02:08:16.202Z,15.52
2017-10-10T02:10:48.290Z,15.03
2017-10-10T02:13:21.204Z,15.49
2017-10-10T02:15:52.355Z,15.50
2017-10-10T02:18:23.436Z,15.56
2017-10-10T02:20:54.259Z,15.65
2017-10-10T02:23:25.213Z,15.78
2017-10-10T02:25:57.069Z,15.92
2017-10-10T02:28:28.739Z,15.82
2017-10-10T02:31:01.719Z,15.77
2017-10-10T02:33:34.585Z,15.73
2017-10-10T02:36:07.314Z,15.72
2017-10-10T02:38:39.492Z,15.77
2017-10-10T02:41:11.549Z,15.59
2017-10-10T02:43:43.405Z,15.49
2017-10-10T02:46:15.300Z,15.50
2017-10-10T02:48:47.275Z,15.14
2017-10-10T02:51:19.458Z,15.23
2017-10-10T02:53:51.458Z,15.32
2017-10-10T02:56:22.716Z,15.35
2017-10-10T02:58:55.548Z,15.25
2017-10-10T03:01:27.653Z,15.42
2017-10-10T03:03:59.628Z,15.44
2017-10-10T03:06:31.336Z,15.62
2017-10-10T03:09:03.500Z,15.16
2017-10-10T03:11:35.910Z,14.88
2017-10-10T03:14:08.669Z,14.72
2017-10-10T03:16:39.897Z,14.18
2017-10-10T03:19:12.605Z,14.66
2017-10-10T03:21:45.795Z,14.66
2017-10-10T03:24:18.964Z,14.64
2017-10-10T03:26:52.434Z,14.20
2017-10-10T03:29:25.796Z,14.21
2017-10-10T03:31:58.092Z,14.59
2017-10-10T03:34:29.717Z,14.56
2017-10-10T03:37:01.873Z,14.81
2017-10-10T03:39:33.487Z,14.18
2017-10-10T03:42:05.927Z,14.46
2017-10-10T03:44:37.600Z,14.50
2017-10-10T03:47:09.940Z,14.19
2017-10-10T03:49:41.925Z,14.52
2017-10-10T03:52:13.374Z,14.08
2017-10-10T03:54:48.107Z,14.18
2017-10-10T03:57:27.856Z,13.95
2017-10-10T03:59:58.938Z,14.26
2017-10-10T04:02:30.340Z,13.69
2017-10-10T04:05:01.531Z,14.49
2017-10-10T04:07:33.069Z,15.03
2017-10-10T04:10:04.450Z,15.27
2017-10-10T04:12:36.172Z,15.15
2017-10-10T04:15:07.125Z,15.43
2017-10-10T04:17:38.526Z,15.43
2017-10-10T04:20:09.462Z,15.53
2017-10-10T04:22:40.622Z,15.77
2017-10-10T04:25:12.338Z,15.73
2017-10-10T20:34:26.010Z,15.72
2017-10-10T20:36:58.145Z,15.42
2017-10-10T20:39:29.329Z,16.07
2017-10-10T20:41:59.947Z,16.05
2017-10-10T20:48:14.277Z,15.82
2017-10-10T20:50:49.323Z,15.77
2017-10-10T20:53:31.234Z,16.05
2017-10-10T20:56:05.729Z,16.23
2017-10-10T20:58:39.716Z,16.06
2017-10-10T21:01:11.978Z,16.01
2017-10-10T21:03:44.099Z,15.83
2017-10-10T21:06:16.725Z,15.65
2017-10-10T21:08:48.386Z,15.73
2017-10-10T21:11:20.142Z,15.79
2017-10-10T21:13:52.617Z,15.77
2017-10-10T21:16:24.406Z,15.94
2017-10-10T21:18:56.345Z,16.28
2017-10-10T21:21:27.553Z,16.43
2017-10-10T21:24:07.817Z,16.22
2017-10-10T21:26:39.544Z,16.53
2017-10-10T21:29:13.941Z,16.69
2017-10-10T21:31:46.741Z,16.37
2017-10-10T21:34:18.579Z,16.24
2017-10-10T21:36:50.312Z,16.19
2017-10-10T21:39:23.131Z,16.26
2017-10-10T21:41:55.508Z,16.28
2017-10-10T21:44:27.955Z,16.11
2017-10-10T21:46:59.858Z,15.88
2017-10-10T21:49:32.005Z,15.75
2017-10-10T21:52:04.512Z,16.16
2017-10-10T21:54:41.721Z,15.83
2017-10-10T21:57:12.774Z,15.98
2017-10-10T21:59:44.840Z,16.47
2017-10-10T22:02:18.701Z,16.06
2017-10-10T22:04:54.329Z,16.08
2017-10-10T22:07:26.513Z,16.48
2017-10-10T22:09:57.849Z,16.63
2017-10-10T22:12:32.448Z,17.06
2017-10-10T22:15:11.445Z,17.15
2017-10-10T22:17:45.727Z,16.93
2017-10-10T22:20:17.860Z,16.50
2017-10-10T22:22:49.995Z,15.57
2017-10-10T22:25:21.461Z,15.61
2017-10-10T22:30:45.544Z,15.51
2017-10-10T22:33:27.310Z,15.90
2017-10-10T22:36:06.002Z,15.75
2017-10-10T22:38:44.844Z,15.27
2017-10-10T22:41:28.341Z,15.60
2017-10-10T22:44:01.498Z,15.67
2017-10-10T22:46:34.545Z,15.47
2017-10-10T22:49:08.595Z,15.00
2017-10-10T22:51:41.155Z,15.16
2017-10-10T22:54:15.072Z,15.28
2017-10-10T22:56:47.220Z,15.10
2017-10-10T22:59:22.503Z,14.96
2017-10-10T23:01:53.914Z,15.66
2017-10-10T23:04:27.902Z,15.61
2017-10-10T23:07:03.778Z,15.93
2017-10-10T23:09:41.967Z,15.72
2017-10-10T23:12:13.779Z,15.90
2017-10-10T23:14:45.576Z,15.61
2017-10-10T23:17:17.150Z,15.73
2017-10-10T23:19:49.976Z,15.86
2017-10-10T23:22:23.392Z,16.08
2017-10-10T23:24:59.637Z,16.06
2017-10-10T23:27:31.650Z,16.06
2017-10-10T23:30:03.679Z,16.38
